Terminal Aerodrome Forecast
Issued by NWS

Current Version | Previous Version | Graphics & Text | Print | Product List | Glossary On
Versions: 1 2 3 4 5 6 7 8 9 10 11 12 13 14 15 16
000
FTUS41 KRNK 271311 AAA
TAFLWB
TAF AMD
KLWB 271311Z 2713/2812 00000KT P6SM SCT001
     FM271330 24004KT P6SM SCT050 SCT100 BKN250
     FM272000 23005KT P6SM VCTS BKN045CB OVC090
     FM280200 00000KT 4SM BR BKN050 OVC100
      TEMPO 2808/2812 1SM BR=

USA.gov is the U.S. government's official web portal to all federal, state and local government web resources and services.